Time;durP1;ratioP1;P1;durP2;ratioP2;P2;SDS_P1;SDS_P2;PMS_P1;PMS_P2;Temp;Humidity;BMP_temperature;BMP_pressure;BME280_temperature;BME280_humidity;BME280_pressure;Samples;Min_cycle;Max_cycle;Signal;HPM_P1;HPM_P2
2023/01/10 00:02:06;;;;;;;;;;;;;;;;;;;;;
2023/01/10 00:04:34;;;;;;;0.00;0.00;;;3.80;99.90;;;;;;5114035;28;20048;-89
2023/01/10 00:07:03;;;;;;;0.13;0.13;;;3.80;99.90;;;;;;5080826;28;20097;-89
2023/01/10 00:09:46;;;;;;;;;;;;;;;;;;;;;
2023/01/10 00:15:01;;;;;;;0.00;0.00;;;3.80;99.90;;;;;;5099876;28;20051;-89
2023/01/10 00:17:32;;;;;;;0.10;0.10;;;3.80;99.90;;;;;;5080577;28;20088;-90
2023/01/10 00:20:00;;;;;;;0.30;0.17;;;3.80;99.90;;;;;;5097707;28;20104;-89
2023/01/10 00:22:26;;;;;;;0.05;0.05;;;4.40;99.90;;;;;;5114407;28;20126;-89
2023/01/10 00:24:56;;;;;;;0.43;0.40;;;3.30;99.90;;;;;;5097061;28;20097;-89
2023/01/10 00:27:25;;;;;;;0.10;0.10;;;3.80;99.90;;;;;;5079961;28;20044;-89
2023/01/10 00:30:02;;;;;;;0.00;0.00;;;3.80;99.90;;;;;;5096624;28;20056;-88
2023/01/10 00:32:28;;;;;;;0.53;0.03;;;3.80;99.90;;;;;;5097095;28;20107;-89
2023/01/10 00:35:01;;;;;;;0.10;0.10;;;3.70;99.90;;;;;;5097307;28;20126;-89
2023/01/10 00:37:30;;;;;;;0.10;0.10;;;3.80;99.90;;;;;;5080872;28;20138;-89
2023/01/10 00:39:58;;;;;;;0.13;0.13;;;3.90;99.90;;;;;;5097182;28;20070;-89
2023/01/10 00:45:10;;;;;;;0.00;0.00;;;4.00;99.90;;;;;;5113741;28;20048;-89
2023/01/10 00:47:36;;;;;;;0.00;0.00;;;4.00;99.90;;;;;;5096929;28;20070;-89
2023/01/10 00:50:05;;;;;;;0.00;0.00;;;4.60;99.90;;;;;;5080116;28;20506;-89
2023/01/10 00:52:31;;;;;;;0.40;0.10;;;3.90;99.90;;;;;;5113181;28;20048;-90
2023/01/10 00:54:59;;;;;;;0.20;0.20;;;3.90;99.90;;;;;;5079551;28;20047;-89
2023/01/10 00:57:28;;;;;;;0.00;0.00;;;4.00;99.90;;;;;;5079642;28;20126;-89
2023/01/10 00:59:53;;;;;;;0.20;0.10;;;4.30;99.90;;;;;;5063552;28;20069;-89
2023/01/10 01:02:19;;;;;;;0.10;0.10;;;4.10;99.90;;;;;;5096640;28;20047;-88
2023/01/10 01:04:45;;;;;;;0.17;0.17;;;3.30;99.90;;;;;;5095989;28;20126;-89
2023/01/10 01:07:11;;;;;;;0.00;0.00;;;4.20;99.90;;;;;;5096286;28;20048;-89
2023/01/10 01:10:25;;;;;;;0.07;0.07;;;4.10;99.90;;;;;;5112968;28;20043;-89
2023/01/10 01:12:22;;;;;;;0.00;0.00;;;4.30;99.90;;;;;;5113323;28;20059;-89
2023/01/10 01:14:54;;;;;;;0.20;0.10;;;4.30;99.90;;;;;;5095720;28;20405;-88
2023/01/10 01:17:22;;;;;;;0.10;0.10;;;3.60;99.90;;;;;;5096126;28;20050;-89
2023/01/10 01:19:48;;;;;;;0.20;0.20;;;4.50;99.90;;;;;;5095789;28;20104;-89
2023/01/10 01:22:14;;;;;;;0.20;0.20;;;5.10;99.90;;;;;;5078916;28;20047;-89
2023/01/10 01:24:48;;;;;;;0.27;0.20;;;5.10;99.90;;;;;;5095304;28;20050;-89
2023/01/10 01:27:19;;;;;;;0.10;0.10;;;4.40;99.90;;;;;;5097408;28;20378;-89
2023/01/10 01:29:50;;;;;;;0.13;0.08;;;4.50;99.90;;;;;;5112713;28;20048;-88
2023/01/10 01:32:15;;;;;;;0.13;0.05;;;4.50;99.90;;;;;;5095830;28;20043;-89
2023/01/10 01:34:53;;;;;;;0.23;0.10;;;4.60;99.90;;;;;;5095366;28;20053;-89
2023/01/10 01:37:19;;;;;;;;;;;4.50;99.90;;;;;;5094779;28;20094;-89
2023/01/10 01:39:47;;;;;;;0.05;0.05;;;4.60;99.90;;;;;;5112437;28;19959;-89
2023/01/10 01:42:28;;;;;;;0.22;0.22;;;4.60;99.90;;;;;;5095697;28;20108;-89
2023/01/10 01:45:16;;;;;;;0.22;0.00;;;4.70;99.90;;;;;;5095633;28;20435;-89
2023/01/10 01:48:00;;;;;;;0.28;0.15;;;5.90;99.90;;;;;;5112612;28;20392;-89
2023/01/10 01:50:50;;;;;;;2.85;0.20;;;4.70;99.90;;;;;;5112972;28;20039;-89
2023/01/10 01:53:46;;;;;;;0.65;0.65;;;4.60;99.90;;;;;;5095806;28;20039;-88
2023/01/10 01:56:17;;;;;;;0.00;0.00;;;4.60;99.90;;;;;;5095792;28;20051;-89
2023/01/10 01:59:13;;;;;;;0.20;0.20;;;4.50;99.90;;;;;;5095538;28;20079;-89
2023/01/10 02:01:51;;;;;;;0.00;0.00;;;4.40;99.90;;;;;;5092794;28;20051;-90
2023/01/10 02:04:26;;;;;;;0.00;0.00;;;4.00;99.90;;;;;;5095935;28;20181;-88
2023/01/10 02:06:54;;;;;;;0.20;0.20;;;4.40;99.90;;;;;;5095505;28;20046;-85
2023/01/10 02:09:31;;;;;;;0.88;0.47;;;4.30;99.90;;;;;;5095873;28;20044;-84
2023/01/10 02:11:57;;;;;;;0.03;0.03;;;4.30;99.90;;;;;;5095834;28;20047;-85
2023/01/10 02:14:25;;;;;;;0.13;0.10;;;4.20;99.90;;;;;;5096035;28;20044;-85
2023/01/10 02:16:51;;;;;;;0.15;0.13;;;4.20;99.90;;;;;;5095583;28;20112;-84
2023/01/10 02:19:36;;;;;;;0.00;0.00;;;4.10;99.90;;;;;;5112743;28;20051;-85
2023/01/10 02:22:40;;;;;;;0.00;0.00;;;4.10;99.90;;;;;;5112522;28;20505;-84
2023/01/10 02:25:21;;;;;;;0.13;0.00;;;4.10;99.90;;;;;;5095271;28;20041;-85
2023/01/10 02:28:05;;;;;;;0.10;0.10;;;3.90;99.90;;;;;;5112159;28;20093;-85
2023/01/10 02:31:01;;;;;;;0.00;0.00;;;4.20;99.90;;;;;;5095859;28;20040;-84
2023/01/10 02:33:36;;;;;;;0.43;0.20;;;4.30;99.90;;;;;;5112642;28;20040;-85
2023/01/10 02:36:17;;;;;;;0.05;0.05;;;4.30;99.90;;;;;;5095452;28;20059;-85
2023/01/10 02:39:11;;;;;;;0.35;0.10;;;4.30;99.90;;;;;;5112201;28;20044;-94
2023/01/10 02:41:48;;;;;;;0.10;0.08;;;4.30;99.90;;;;;;5095163;28;20056;-85
2023/01/10 02:44:47;;;;;;;0.20;0.08;;;4.30;99.90;;;;;;5095770;28;20116;-85
2023/01/10 02:47:13;;;;;;;0.63;0.20;;;4.30;99.90;;;;;;5061578;28;20059;-85
2023/01/10 02:49:44;;;;;;;0.10;0.10;;;4.30;99.90;;;;;;5080790;28;20047;-85
2023/01/10 02:52:17;;;;;;;0.10;0.10;;;4.30;99.90;;;;;;5082531;28;20770;-85
2023/01/10 02:54:43;;;;;;;0.20;0.20;;;4.30;99.90;;;;;;5099555;28;20396;-84
2023/01/10 02:57:25;;;;;;;0.00;0.00;;;4.40;99.90;;;;;;5082219;28;20378;-84
2023/01/10 03:00:03;;;;;;;0.47;0.15;;;4.50;99.90;;;;;;5082332;28;20039;-85
2023/01/10 03:02:53;;;;;;;2.35;0.20;;;4.50;99.90;;;;;;5099476;28;20085;-85
2023/01/10 03:05:36;;;;;;;0.00;0.00;;;4.60;99.90;;;;;;5082144;28;20040;-84
2023/01/10 03:08:32;;;;;;;0.00;0.00;;;4.60;99.90;;;;;;5098994;28;20039;-84
2023/01/10 03:11:12;;;;;;;0.00;0.00;;;4.70;99.90;;;;;;5082107;28;20039;-85
2023/01/10 03:13:44;;;;;;;0.08;0.08;;;4.70;99.90;;;;;;5082077;28;20074;-84
2023/01/10 03:16:15;;;;;;;0.17;0.10;;;4.70;99.90;;;;;;5081987;28;20047;-84
2023/01/10 03:18:47;;;;;;;0.00;0.00;;;4.70;99.90;;;;;;5082183;28;20401;-85
2023/01/10 03:21:14;;;;;;;0.10;0.10;;;4.70;99.90;;;;;;5098916;28;20055;-85
2023/01/10 03:23:41;;;;;;;0.10;0.10;;;4.70;99.90;;;;;;5082141;28;20054;-84
2023/01/10 03:26:10;;;;;;;0.00;0.00;;;4.70;99.90;;;;;;5098071;28;20081;-84
2023/01/10 03:29:01;;;;;;;0.20;0.20;;;4.70;99.90;;;;;;5082699;28;20405;-84
2023/01/10 03:31:36;;;;;;;0.10;0.10;;;4.70;99.90;;;;;;5088711;28;20134;-85
2023/01/10 03:34:03;;;;;;;0.00;0.00;;;4.70;99.90;;;;;;5098808;28;20192;-87
2023/01/10 03:36:59;;;;;;;0.80;0.20;;;4.60;99.90;;;;;;5083006;28;20044;-87
2023/01/10 03:39:57;;;;;;;1.10;0.45;;;4.60;99.90;;;;;;5082193;28;20044;-85
2023/01/10 03:45:34;;;;;;;0.20;0.00;;;4.60;99.90;;;;;;5098360;28;20051;-84
2023/01/10 03:48:04;;;;;;;0.20;0.20;;;4.70;99.90;;;;;;5098643;28;20047;-84
2023/01/10 03:50:31;;;;;;;0.10;0.05;;;4.70;99.90;;;;;;5081735;28;20503;-85
2023/01/10 03:52:57;;;;;;;0.08;0.08;;;4.70;99.90;;;;;;5081337;28;20447;-84
2023/01/10 03:55:27;;;;;;;0.05;0.05;;;4.70;99.90;;;;;;5048075;28;20036;-85
2023/01/10 03:57:52;;;;;;;0.20;0.20;;;4.80;99.90;;;;;;5098087;28;20051;-89
2023/01/10 04:00:18;;;;;;;0.00;0.00;;;4.80;99.90;;;;;;5080680;28;20393;-85
2023/01/10 04:02:44;;;;;;;0.50;0.50;;;4.80;99.90;;;;;;5081274;28;20047;-85
2023/01/10 04:05:11;;;;;;;0.77;0.30;;;4.80;99.90;;;;;;5080946;28;20078;-85
2023/01/10 04:07:36;;;;;;;0.00;0.00;;;4.90;99.90;;;;;;5081329;28;20292;-84
2023/01/10 04:10:03;;;;;;;0.00;0.00;;;4.90;99.90;;;;;;5064136;28;20043;-85
2023/01/10 04:12:29;;;;;;;;;;;4.90;99.90;;;;;;5081591;28;20054;-84
2023/01/10 04:14:54;;;;;;;0.15;0.00;;;4.90;99.90;;;;;;5080895;28;19923;-86
2023/01/10 04:17:20;;;;;;;0.40;0.40;;;4.90;99.90;;;;;;5081089;28;20075;-85
2023/01/10 04:19:46;;;;;;;0.10;0.10;;;4.90;99.90;;;;;;5064496;28;20477;-85
2023/01/10 04:22:12;;;;;;;0.97;0.10;;;5.00;99.90;;;;;;5081040;28;20091;-85
2023/01/10 04:24:37;;;;;;;0.10;0.10;;;4.80;99.90;;;;;;5063459;28;20054;-85
2023/01/10 04:27:03;;;;;;;0.70;0.10;;;4.80;99.90;;;;;;5064220;28;20542;-85
2023/01/10 04:29:29;;;;;;;0.00;0.00;;;4.80;99.90;;;;;;5098012;28;20493;-85
2023/01/10 04:31:55;;;;;;;0.00;0.00;;;4.70;99.90;;;;;;5080926;28;20396;-85
2023/01/10 04:34:21;;;;;;;0.10;0.10;;;4.70;99.90;;;;;;5080539;28;20092;-85
2023/01/10 04:36:48;;;;;;;0.63;0.10;;;4.70;99.90;;;;;;5097007;28;20043;-85
2023/01/10 04:39:14;;;;;;;;;;;5.20;99.90;;;;;;5081050;28;20066;-85
2023/01/10 04:41:40;;;;;;;0.10;0.05;;;4.80;99.90;;;;;;5080447;28;20350;-85
2023/01/10 04:44:06;;;;;;;0.30;0.10;;;4.80;99.90;;;;;;5096832;28;20501;-85
2023/01/10 04:46:32;;;;;;;0.00;0.00;;;4.80;99.90;;;;;;5080720;28;20120;-85
2023/01/10 04:48:58;;;;;;;0.30;0.17;;;4.80;99.90;;;;;;5080238;28;20188;-85
2023/01/10 04:51:25;;;;;;;0.08;0.08;;;4.80;99.90;;;;;;5080810;28;20134;-85
2023/01/10 04:53:51;;;;;;;0.22;0.22;;;4.80;99.90;;;;;;5097393;28;20124;-85
2023/01/10 04:56:19;;;;;;;0.10;0.10;;;4.80;99.90;;;;;;5063808;28;20058;-85
2023/01/10 04:58:46;;;;;;;0.10;0.05;;;4.80;99.90;;;;;;5097200;28;20047;-85
2023/01/10 05:01:15;;;;;;;;;;;4.80;99.90;;;;;;5097381;28;20051;-85
2023/01/10 05:03:42;;;;;;;0.03;0.03;;;4.90;99.90;;;;;;5097072;28;20358;-85
2023/01/10 05:06:08;;;;;;;0.10;0.10;;;4.90;99.90;;;;;;5096507;28;20035;-85
2023/01/10 05:08:34;;;;;;;1.53;0.20;;;4.90;99.90;;;;;;5080057;28;20446;-85
2023/01/10 05:11:00;;;;;;;0.53;0.10;;;4.90;99.90;;;;;;5080339;28;20289;-85
2023/01/10 05:13:26;;;;;;;0.10;0.00;;;4.90;99.90;;;;;;5079794;28;20081;-85
2023/01/10 05:15:56;;;;;;;0.28;0.28;;;4.90;99.90;;;;;;5080111;28;20039;-86
2023/01/10 05:18:27;;;;;;;0.30;0.10;;;4.90;99.90;;;;;;5063318;28;20083;-86
2023/01/10 05:20:58;;;;;;;0.20;0.20;;;4.90;99.90;;;;;;5080115;28;20051;-85
2023/01/10 05:23:27;;;;;;;0.38;0.38;;;5.00;99.90;;;;;;5096724;28;20039;-86
2023/01/10 05:25:53;;;;;;;0.00;0.00;;;4.90;99.90;;;;;;5079728;28;20048;-86
2023/01/10 05:28:18;;;;;;;0.00;0.00;;;5.00;99.90;;;;;;5079673;28;20119;-86
2023/01/10 05:30:44;;;;;;;2.10;0.07;;;4.90;99.90;;;;;;5079776;28;20051;-86
2023/01/10 05:33:10;;;;;;;0.00;0.00;;;4.90;99.90;;;;;;5080235;28;20039;-85
2023/01/10 05:35:39;;;;;;;0.00;0.00;;;4.90;99.90;;;;;;5097695;28;20044;-86
2023/01/10 05:38:04;;;;;;;0.00;0.00;;;5.00;99.90;;;;;;5079540;28;20051;-90
2023/01/10 05:40:30;;;;;;;0.00;0.00;;;4.90;99.90;;;;;;5096641;28;20397;-85
2023/01/10 05:42:56;;;;;;;0.77;0.13;;;5.10;99.90;;;;;;5095993;28;20473;-85
2023/01/10 05:45:22;;;;;;;0.00;0.00;;;5.10;99.90;;;;;;5096209;28;20050;-85
2023/01/10 05:47:47;;;;;;;0.00;0.00;;;5.10;99.90;;;;;;5079436;28;20066;-85
2023/01/10 05:50:13;;;;;;;0.10;0.07;;;5.10;99.90;;;;;;5079437;28;20040;-85
2023/01/10 05:52:39;;;;;;;0.00;0.00;;;3.90;99.90;;;;;;5096526;28;20481;-85
2023/01/10 05:55:05;;;;;;;0.20;0.20;;;5.10;99.90;;;;;;5062892;28;20100;-85
2023/01/10 05:57:31;;;;;;;0.00;0.00;;;5.10;99.90;;;;;;5096224;28;20043;-85
2023/01/10 05:59:57;;;;;;;0.07;0.07;;;5.20;99.90;;;;;;5079549;28;20396;-85
2023/01/10 06:02:25;;;;;;;0.53;0.10;;;5.20;99.90;;;;;;5096179;28;20039;-86
2023/01/10 06:04:51;;;;;;;0.00;0.00;;;5.10;99.90;;;;;;5079024;28;20400;-85
2023/01/10 06:07:16;;;;;;;0.23;0.10;;;5.20;99.90;;;;;;5079046;28;20043;-86
2023/01/10 06:09:42;;;;;;;0.00;0.00;;;5.10;99.90;;;;;;5079184;28;20385;-85
2023/01/10 06:12:10;;;;;;;0.10;0.10;;;5.20;99.90;;;;;;5062124;28;20085;-85
2023/01/10 06:14:36;;;;;;;0.17;0.00;;;5.10;99.90;;;;;;5062499;28;20127;-85
2023/01/10 06:17:02;;;;;;;0.10;0.10;;;5.10;99.90;;;;;;5062485;28;20138;-85
2023/01/10 06:19:28;;;;;;;0.00;0.00;;;5.00;99.90;;;;;;5078613;28;20577;-86
2023/01/10 06:21:55;;;;;;;0.00;0.00;;;5.20;99.90;;;;;;5062196;28;20047;-85
2023/01/10 06:24:21;;;;;;;0.10;0.10;;;5.10;99.90;;;;;;5080539;28;20095;-86
2023/01/10 06:26:47;;;;;;;0.57;0.25;;;5.10;99.90;;;;;;5100214;28;20051;-86
2023/01/10 06:29:13;;;;;;;0.00;0.00;;;5.10;99.90;;;;;;5066242;28;20486;-86
2023/01/10 06:31:39;;;;;;;0.00;0.00;;;5.20;99.90;;;;;;5099974;28;20040;-85
2023/01/10 06:34:04;;;;;;;0.10;0.03;;;5.10;99.90;;;;;;5083134;28;20044;-85
2023/01/10 06:36:33;;;;;;;0.20;0.10;;;5.00;99.90;;;;;;5082874;28;20465;-86
2023/01/10 06:38:58;;;;;;;0.20;0.10;;;5.10;99.90;;;;;;5100065;28;20075;-86
2023/01/10 06:41:24;;;;;;;0.07;0.00;;;5.00;99.90;;;;;;5082297;28;20480;-85
2023/01/10 06:43:50;;;;;;;0.10;0.10;;;5.00;99.90;;;;;;5083102;28;20050;-85
2023/01/10 06:46:18;;;;;;;0.23;0.23;;;5.00;99.90;;;;;;5065785;28;20441;-86
2023/01/10 06:48:44;;;;;;;0.00;0.00;;;4.90;99.90;;;;;;5082793;28;20050;-85
2023/01/10 06:51:11;;;;;;;0.20;0.20;;;4.80;99.90;;;;;;5082778;28;20044;-86
2023/01/10 06:53:37;;;;;;;0.22;0.20;;;4.70;99.90;;;;;;5099298;28;20130;-85
2023/01/10 06:56:04;;;;;;;0.10;0.10;;;4.80;99.90;;;;;;5066017;28;20040;-85
2023/01/10 06:58:31;;;;;;;0.00;0.00;;;4.70;99.90;;;;;;5082240;28;20101;-86
2023/01/10 07:00:57;;;;;;;0.45;0.20;;;4.70;99.90;;;;;;5082547;28;20083;-85
2023/01/10 07:03:25;;;;;;;0.00;0.00;;;4.70;99.90;;;;;;5065384;28;20090;-86
2023/01/10 07:05:51;;;;;;;0.38;0.20;;;4.70;99.90;;;;;;5082026;28;20044;-86
2023/01/10 07:08:19;;;;;;;0.47;0.20;;;4.70;99.90;;;;;;5099073;28;20116;-86
2023/01/10 07:10:44;;;;;;;1.05;0.30;;;4.80;99.90;;;;;;5081681;28;20055;-86
2023/01/10 07:13:10;;;;;;;0.63;0.63;;;4.80;99.90;;;;;;5082261;28;20054;-85
2023/01/10 07:15:36;;;;;;;0.10;0.10;;;4.90;99.90;;;;;;5081537;28;20043;-86
2023/01/10 07:18:02;;;;;;;0.20;0.20;;;4.90;99.90;;;;;;5098912;28;20046;-86
2023/01/10 07:20:28;;;;;;;0.17;0.10;;;4.90;99.90;;;;;;5081565;28;20048;-86
2023/01/10 07:22:59;;;;;;;0.40;0.40;;;5.00;99.90;;;;;;5082026;28;20370;-86
2023/01/10 07:25:27;;;;;;;1.13;0.70;;;5.10;99.90;;;;;;5081591;28;20047;-86
2023/01/10 07:27:56;;;;;;;0.40;0.38;;;5.00;99.90;;;;;;5098800;28;20104;-85
2023/01/10 07:30:23;;;;;;;0.65;0.63;;;5.00;99.90;;;;;;5065675;28;20378;-86
2023/01/10 07:32:55;;;;;;;0.20;0.20;;;5.00;99.90;;;;;;5098562;28;20035;-86
2023/01/10 07:35:22;;;;;;;2.38;0.30;;;4.50;99.90;;;;;;5064695;28;20035;-85
2023/01/10 07:37:48;;;;;;;0.22;0.17;;;5.10;99.90;;;;;;5081892;28;20051;-86
2023/01/10 07:40:14;;;;;;;0.33;0.27;;;5.10;99.90;;;;;;5082957;28;20054;-85
2023/01/10 07:42:40;;;;;;;0.87;0.40;;;5.10;99.90;;;;;;5080376;28;20060;-86
2023/01/10 07:45:08;;;;;;;0.37;0.10;;;5.20;99.90;;;;;;5065004;28;20047;-85
2023/01/10 07:47:36;;;;;;;0.20;0.20;;;5.10;99.90;;;;;;5082058;28;20138;-86
2023/01/10 07:50:02;;;;;;;0.10;0.10;;;5.10;99.90;;;;;;5098818;28;20397;-87
2023/01/10 07:52:27;;;;;;;0.00;0.00;;;5.00;99.90;;;;;;5081406;28;20043;-86
2023/01/10 07:54:53;;;;;;;1.30;0.20;;;5.10;99.90;;;;;;5098549;28;20481;-86
2023/01/10 07:57:19;;;;;;;0.50;0.33;;;5.00;99.90;;;;;;5081741;28;20051;-86
2023/01/10 07:59:47;;;;;;;0.30;0.30;;;5.10;99.90;;;;;;5081250;28;20049;-86
2023/01/10 08:02:13;;;;;;;0.05;0.05;;;5.10;99.90;;;;;;5081194;28;20047;-86
2023/01/10 08:04:39;;;;;;;0.00;0.00;;;5.10;99.90;;;;;;5064463;28;20047;-86
2023/01/10 08:07:05;;;;;;;0.30;0.30;;;5.10;99.90;;;;;;5081448;28;20134;-86
2023/01/10 08:09:31;;;;;;;0.23;0.23;;;4.60;99.90;;;;;;5081126;28;20044;-86
2023/01/10 08:11:59;;;;;;;0.27;0.27;;;5.20;99.90;;;;;;5062540;28;20402;-86
2023/01/10 08:14:27;;;;;;;0.47;0.22;;;5.10;99.90;;;;;;5080964;28;20044;-86
2023/01/10 08:16:53;;;;;;;0.30;0.05;;;5.10;99.90;;;;;;5064671;28;20055;-85
2023/01/10 08:19:19;;;;;;;0.30;0.30;;;5.20;99.90;;;;;;5098149;28;20050;-86
2023/01/10 08:21:45;;;;;;;0.00;0.00;;;5.10;99.90;;;;;;5099171;28;20040;-86
2023/01/10 08:24:11;;;;;;;0.00;0.00;;;5.10;99.90;;;;;;5081649;28;20088;-85
2023/01/10 08:26:36;;;;;;;0.10;0.10;;;5.20;99.90;;;;;;5097816;28;20543;-86
2023/01/10 08:29:02;;;;;;;0.00;0.00;;;5.10;99.90;;;;;;5064291;28;20051;-86
2023/01/10 08:31:31;;;;;;;0.17;0.10;;;5.10;99.90;;;;;;5098285;28;20074;-86
2023/01/10 08:33:56;;;;;;;0.10;0.10;;;5.20;99.90;;;;;;5097860;28;20040;-86
2023/01/10 08:36:23;;;;;;;0.20;0.20;;;5.20;99.90;;;;;;5080726;28;20120;-85
2023/01/10 08:38:49;;;;;;;14.23;0.38;;;5.20;99.90;;;;;;5097636;28;20047;-86
2023/01/10 08:41:15;;;;;;;0.10;0.10;;;5.40;99.90;;;;;;5097229;28;20401;-87
2023/01/10 08:43:49;;;;;;;0.17;0.17;;;5.30;99.90;;;;;;5063946;28;20481;-86
2023/01/10 08:46:15;;;;;;;0.52;0.20;;;6.30;99.90;;;;;;5080067;28;20393;-85
2023/01/10 08:48:40;;;;;;;0.10;0.10;;;5.50;99.90;;;;;;5079860;28;20121;-86
2023/01/10 08:51:08;;;;;;;0.10;0.10;;;5.60;99.90;;;;;;5097373;28;20134;-86
2023/01/10 08:53:34;;;;;;;0.25;0.00;;;5.60;99.90;;;;;;5096827;28;20052;-86
2023/01/10 08:56:00;;;;;;;0.22;0.20;;;5.70;99.90;;;;;;5080504;28;20470;-86
2023/01/10 08:58:26;;;;;;;0.77;0.50;;;5.80;99.90;;;;;;5080422;28;20044;-86
2023/01/10 09:00:52;;;;;;;0.40;0.40;;;5.80;99.90;;;;;;5080236;28;20524;-86
2023/01/10 09:03:20;;;;;;;0.40;0.40;;;6.00;99.90;;;;;;5096999;28;20044;-86
2023/01/10 09:05:46;;;;;;;0.03;0.03;;;6.00;99.90;;;;;;5080227;28;20075;-86
2023/01/10 09:08:11;;;;;;;0.20;0.20;;;5.90;99.90;;;;;;5079923;28;20516;-85
2023/01/10 09:10:37;;;;;;;0.23;0.20;;;6.10;99.90;;;;;;5096874;28;20044;-86
2023/01/10 09:13:04;;;;;;;0.03;0.00;;;6.10;99.90;;;;;;5080013;28;20050;-86
2023/01/10 09:15:33;;;;;;;0.10;0.10;;;6.00;99.90;;;;;;5080155;28;20051;-86
2023/01/10 09:18:02;;;;;;;2.17;0.77;;;6.00;99.90;;;;;;5096531;28;20047;-86
2023/01/10 09:20:28;;;;;;;0.10;0.10;;;6.00;99.90;;;;;;5096791;28;20051;-86
2023/01/10 09:22:55;;;;;;;0.20;0.10;;;5.90;99.90;;;;;;5079739;28;20040;-86
2023/01/10 09:25:22;;;;;;;0.00;0.00;;;4.90;99.90;;;;;;5079414;28;20047;-86
2023/01/10 09:27:58;;;;;;;0.28;0.28;;;5.90;99.90;;;;;;5096572;28;20138;-86
2023/01/10 09:30:25;;;;;;;0.52;0.38;;;5.80;99.90;;;;;;5079817;28;20048;-85
2023/01/10 09:32:53;;;;;;;;;;;5.80;99.90;;;;;;5079995;28;20083;-86
2023/01/10 09:35:19;;;;;;;0.98;0.05;;;6.00;99.90;;;;;;5063314;28;19924;-86
2023/01/10 09:37:46;;;;;;;0.38;0.10;;;5.80;99.90;;;;;;5096422;28;20040;-86
2023/01/10 09:40:26;;;;;;;0.45;0.20;;;5.80;99.90;;;;;;5079663;28;20055;-86
2023/01/10 09:43:10;;;;;;;0.10;0.10;;;5.80;99.90;;;;;;5078771;28;20141;-86
2023/01/10 09:46:06;;;;;;;3.17;0.15;;;5.90;99.90;;;;;;5079719;28;20074;-87
2023/01/10 09:48:38;;;;;;;0.00;0.00;;;5.80;99.90;;;;;;5097007;28;20050;-86
2023/01/10 09:51:12;;;;;;;0.10;0.10;;;5.80;99.90;;;;;;5096804;28;20142;-86
2023/01/10 09:53:45;;;;;;;0.17;0.17;;;5.80;99.90;;;;;;5078943;28;20581;-86
2023/01/10 09:56:13;;;;;;;0.40;0.40;;;5.80;99.90;;;;;;5079627;28;20047;-86
2023/01/10 09:58:41;;;;;;;0.20;0.20;;;5.80;99.90;;;;;;5094696;28;20144;-86
2023/01/10 10:01:35;;;;;;;0.22;0.22;;;5.90;99.90;;;;;;5095660;28;20124;-86
2023/01/10 10:04:06;;;;;;;0.60;0.20;;;5.90;99.90;;;;;;5068969;28;20056;-86
2023/01/10 10:06:33;;;;;;;0.20;0.20;;;6.00;99.90;;;;;;5079417;28;20132;-86
2023/01/10 10:09:00;;;;;;;0.17;0.17;;;6.00;99.90;;;;;;5095697;28;20040;-86
2023/01/10 10:11:25;;;;;;;0.10;0.10;;;6.10;99.90;;;;;;5079260;28;20044;-86
2023/01/10 10:14:00;;;;;;;0.10;0.10;;;6.10;99.90;;;;;;5079193;28;20158;-86
2023/01/10 10:16:56;;;;;;;0.20;0.10;;;6.10;99.90;;;;;;5079424;28;20048;-86
2023/01/10 10:19:52;;;;;;;0.95;0.20;;;6.10;99.90;;;;;;5078839;28;20057;-86
2023/01/10 10:22:38;;;;;;;0.00;0.00;;;6.10;99.90;;;;;;5095908;28;20055;-85
2023/01/10 10:25:10;;;;;;;0.47;0.10;;;6.10;99.90;;;;;;5079450;28;20040;-86
2023/01/10 10:28:11;;;;;;;0.47;0.20;;;6.10;99.90;;;;;;5095265;28;20134;-86
2023/01/10 10:30:43;;;;;;;0.17;0.17;;;6.20;99.90;;;;;;5072975;28;20051;-86
2023/01/10 10:33:33;;;;;;;0.10;0.10;;;6.20;99.90;;;;;;5095505;28;20047;-86
2023/01/10 10:36:24;;;;;;;0.20;0.20;;;6.20;99.90;;;;;;5078898;28;20051;-86
2023/01/10 10:38:52;;;;;;;0.10;0.10;;;6.20;99.90;;;;;;5095719;28;20043;-86
2023/01/10 10:41:33;;;;;;;0.20;0.20;;;6.20;99.90;;;;;;5095461;28;20452;-86
2023/01/10 10:44:03;;;;;;;1.65;0.25;;;6.20;99.90;;;;;;5078717;28;20105;-86
2023/01/10 10:46:30;;;;;;;0.60;0.35;;;6.20;99.90;;;;;;5078927;28;20043;-86
2023/01/10 10:49:13;;;;;;;0.30;0.30;;;6.20;99.90;;;;;;5078808;28;20366;-86
2023/01/10 10:51:46;;;;;;;0.82;0.55;;;6.30;99.90;;;;;;5078687;28;20066;-86
2023/01/10 10:54:15;;;;;;;0.38;0.30;;;6.30;99.90;;;;;;5095965;28;20048;-86
2023/01/10 10:56:42;;;;;;;0.68;0.30;;;6.30;99.90;;;;;;5078702;28;20078;-86
2023/01/10 10:59:23;;;;;;;0.32;0.32;;;6.30;99.90;;;;;;5078744;28;20138;-86
2023/01/10 11:01:50;;;;;;;0.70;0.28;;;5.80;99.90;;;;;;5078742;28;20051;-86
2023/01/10 11:04:21;;;;;;;0.52;0.20;;;6.30;99.90;;;;;;5078012;28;20489;-86
2023/01/10 11:06:49;;;;;;;1.33;0.77;;;6.30;99.90;;;;;;5078538;28;20105;-86
2023/01/10 11:12:04;;;;;;;0.75;0.65;;;6.40;99.90;;;;;;5099286;28;20048;-86
2023/01/10 11:14:46;;;;;;;0.60;0.60;;;6.30;99.90;;;;;;5082300;28;20486;-86
2023/01/10 11:17:39;;;;;;;0.88;0.70;;;6.30;99.90;;;;;;5082128;28;20494;-86
2023/01/10 11:20:14;;;;;;;0.22;0.20;;;6.90;99.90;;;;;;5082194;28;20043;-86
2023/01/10 11:22:49;;;;;;;0.60;0.57;;;6.30;99.90;;;;;;5082317;28;20054;-86
2023/01/10 11:25:20;;;;;;;0.80;0.60;;;6.40;99.90;;;;;;5098883;28;20036;-86
2023/01/10 11:27:52;;;;;;;3.42;0.88;;;6.40;99.90;;;;;;5082155;28;20046;-87
2023/01/10 11:30:22;;;;;;;0.60;0.50;;;6.40;99.90;;;;;;5098922;28;20552;-86
2023/01/10 11:32:56;;;;;;;0.52;0.43;;;6.40;99.90;;;;;;5098624;28;20136;-87
2023/01/10 11:35:25;;;;;;;1.27;0.68;;;6.30;99.90;;;;;;5082031;28;20039;-86
2023/01/10 11:38:21;;;;;;;0.65;0.50;;;6.40;99.90;;;;;;5098514;28;20122;-86
2023/01/10 11:40:55;;;;;;;1.00;0.50;;;6.30;99.90;;;;;;5079341;28;20058;-86
2023/01/10 11:43:26;;;;;;;0.85;0.68;;;6.30;99.90;;;;;;5097976;28;20102;-86
2023/01/10 11:46:20;;;;;;;0.43;0.38;;;6.30;99.90;;;;;;5098540;28;20104;-87
2023/01/10 11:48:52;;;;;;;0.82;0.50;;;6.30;99.90;;;;;;5082451;28;20048;-86
2023/01/10 11:51:27;;;;;;;0.40;0.40;;;6.40;99.90;;;;;;5084380;28;20105;-86
2023/01/10 11:54:22;;;;;;;0.38;0.25;;;6.30;99.90;;;;;;5083469;28;20546;-87
2023/01/10 11:56:57;;;;;;;0.43;0.43;;;6.30;99.90;;;;;;5098668;28;20480;-86
2023/01/10 11:59:24;;;;;;;0.40;0.32;;;6.30;99.90;;;;;;5082002;28;20043;-86
2023/01/10 12:02:03;;;;;;;0.20;0.20;;;6.30;99.90;;;;;;5048563;28;20047;-86
2023/01/10 12:04:38;;;;;;;0.10;0.10;;;6.30;99.90;;;;;;5081746;28;20488;-86
2023/01/10 12:07:09;;;;;;;0.47;0.47;;;6.30;99.90;;;;;;5098306;28;20036;-87
2023/01/10 12:09:35;;;;;;;0.30;0.30;;;6.40;99.90;;;;;;5081539;28;20039;-86
2023/01/10 12:12:27;;;;;;;1.30;0.37;;;6.30;99.90;;;;;;5081527;28;20055;-86
2023/01/10 12:14:55;;;;;;;0.10;0.10;;;6.30;99.90;;;;;;5081244;28;20035;-87
2023/01/10 12:17:27;;;;;;;0.20;0.20;;;6.30;99.90;;;;;;5081321;28;20047;-86
2023/01/10 12:19:57;;;;;;;0.28;0.13;;;6.30;99.90;;;;;;5081250;28;20054;-90
2023/01/10 12:23:16;;;;;;;0.20;0.13;;;6.30;99.90;;;;;;5080326;28;20043;-86
2023/01/10 12:25:44;;;;;;;0.20;0.20;;;6.30;99.90;;;;;;5036288;28;20094;-86
2023/01/10 12:28:29;;;;;;;0.20;0.20;;;5.10;99.90;;;;;;5080874;28;20568;-86
2023/01/10 12:30:58;;;;;;;0.20;0.20;;;6.30;99.90;;;;;;5081223;28;20055;-87
2023/01/10 12:33:37;;;;;;;0.80;0.45;;;6.70;99.90;;;;;;5081121;28;20048;-86
2023/01/10 12:36:32;;;;;;;0.52;0.35;;;6.30;99.90;;;;;;5097938;28;20051;-86
2023/01/10 12:39:15;;;;;;;0.22;0.15;;;6.30;99.90;;;;;;5097835;28;20050;-86
2023/01/10 12:44:35;;;;;;;0.30;0.30;;;6.20;99.90;;;;;;5097519;28;20047;-86
2023/01/10 12:47:18;;;;;;;0.85;0.55;;;6.20;99.90;;;;;;5080838;28;20036;-87
2023/01/10 12:49:53;;;;;;;1.63;0.45;;;6.20;99.90;;;;;;5097560;28;20051;-86
2023/01/10 12:52:46;;;;;;;0.65;0.35;;;6.20;99.90;;;;;;5097259;28;20485;-86
2023/01/10 12:55:16;;;;;;;0.35;0.10;;;6.20;99.90;;;;;;5080605;28;20075;-86
2023/01/10 12:57:47;;;;;;;0.22;0.13;;;6.20;99.90;;;;;;5080250;28;20557;-86
2023/01/10 13:00:23;;;;;;;0.30;0.30;;;6.20;99.90;;;;;;5080519;28;20374;-87
2023/01/10 13:02:54;;;;;;;0.55;0.30;;;6.20;99.90;;;;;;5080587;28;20048;-86
2023/01/10 13:05:27;;;;;;;0.20;0.20;;;6.20;99.90;;;;;;5096667;28;20043;-86
2023/01/10 13:08:03;;;;;;;0.50;0.32;;;6.20;99.90;;;;;;5080425;28;20048;-86
2023/01/10 13:10:30;;;;;;;0.55;0.38;;;6.20;99.90;;;;;;5080059;28;20036;-86
2023/01/10 13:13:12;;;;;;;4.80;1.38;;;6.10;99.90;;;;;;5080277;28;20043;-86
2023/01/10 13:19:09;;;;;;;0.43;0.40;;;6.10;99.90;;;;;;5062123;28;20442;-87
2023/01/10 13:21:40;;;;;;;0.85;0.30;;;6.10;99.90;;;;;;5097124;28;20043;-86
2023/01/10 13:24:21;;;;;;;0.40;0.40;;;6.00;99.90;;;;;;5080049;28;20058;-86
2023/01/10 13:26:56;;;;;;;0.40;0.30;;;6.10;99.90;;;;;;5080246;28;20449;-87
2023/01/10 13:29:41;;;;;;;0.55;0.20;;;6.00;99.90;;;;;;5079920;28;20082;-86
2023/01/10 13:32:28;;;;;;;0.25;0.25;;;6.00;99.90;;;;;;5096548;28;20036;-87
2023/01/10 13:34:55;;;;;;;0.47;0.28;;;6.00;99.90;;;;;;5096778;28;20051;-86
2023/01/10 13:37:35;;;;;;;1.02;0.40;;;6.00;99.90;;;;;;5096494;28;20096;-86
2023/01/10 13:40:03;;;;;;;0.60;0.20;;;5.90;99.90;;;;;;5080005;28;20433;-86
2023/01/10 13:45:26;;;;;;;0.08;0.08;;;5.90;99.90;;;;;;5096384;28;20099;-86